sensor_id;sensor_type;location;lat;lon;timestamp;P1;durP1;ratioP1;P2;durP2;ratioP2
7541;SDS011;3812;50.006;8.230;2022-11-18T00:01:10;10.80;;;7.27;;
7541;SDS011;3812;50.006;8.230;2022-11-18T00:03:39;12.63;;;7.67;;
7541;SDS011;3812;50.006;8.230;2022-11-18T00:06:08;13.47;;;7.53;;
7541;SDS011;3812;50.006;8.230;2022-11-18T00:08:37;11.40;;;7.53;;
7541;SDS011;3812;50.006;8.230;2022-11-18T00:11:04;13.73;;;8.13;;
7541;SDS011;3812;50.006;8.230;2022-11-18T00:13:32;10.33;;;7.33;;
7541;SDS011;3812;50.006;8.230;2022-11-18T00:16:18;17.03;;;8.03;;
7541;SDS011;3812;50.006;8.230;2022-11-18T00:18:45;11.97;;;7.73;;
7541;SDS011;3812;50.006;8.230;2022-11-18T00:21:12;10.77;;;7.33;;
7541;SDS011;3812;50.006;8.230;2022-11-18T00:23:39;10.20;;;6.77;;
7541;SDS011;3812;50.006;8.230;2022-11-18T00:26:06;11.53;;;7.67;;
7541;SDS011;3812;50.006;8.230;2022-11-18T00:28:35;12.07;;;7.43;;
7541;SDS011;3812;50.006;8.230;2022-11-18T00:31:02;10.93;;;7.37;;
7541;SDS011;3812;50.006;8.230;2022-11-18T00:33:32;11.40;;;7.20;;
7541;SDS011;3812;50.006;8.230;2022-11-18T00:36:01;14.23;;;8.10;;
7541;SDS011;3812;50.006;8.230;2022-11-18T00:38:28;12.30;;;7.77;;
7541;SDS011;3812;50.006;8.230;2022-11-18T00:40:59;12.53;;;7.83;;
7541;SDS011;3812;50.006;8.230;2022-11-18T00:43:26;13.53;;;7.87;;
7541;SDS011;3812;50.006;8.230;2022-11-18T00:45:52;11.10;;;7.50;;
7541;SDS011;3812;50.006;8.230;2022-11-18T00:48:19;15.20;;;8.47;;
7541;SDS011;3812;50.006;8.230;2022-11-18T00:50:48;13.03;;;7.33;;
7541;SDS011;3812;50.006;8.230;2022-11-18T00:53:16;13.73;;;8.20;;
7541;SDS011;3812;50.006;8.230;2022-11-18T00:55:44;10.10;;;7.83;;
7541;SDS011;3812;50.006;8.230;2022-11-18T00:58:11;10.40;;;6.93;;
7541;SDS011;3812;50.006;8.230;2022-11-18T01:00:39;19.20;;;7.60;;
7541;SDS011;3812;50.006;8.230;2022-11-18T01:03:07;14.03;;;8.33;;
7541;SDS011;3812;50.006;8.230;2022-11-18T01:05:34;17.37;;;8.87;;
7541;SDS011;3812;50.006;8.230;2022-11-18T01:08:03;11.97;;;7.90;;
7541;SDS011;3812;50.006;8.230;2022-11-18T01:10:30;15.53;;;8.63;;
7541;SDS011;3812;50.006;8.230;2022-11-18T01:12:57;17.43;;;8.87;;
7541;SDS011;3812;50.006;8.230;2022-11-18T01:15:42;18.63;;;8.37;;
7541;SDS011;3812;50.006;8.230;2022-11-18T01:18:11;14.57;;;8.63;;
7541;SDS011;3812;50.006;8.230;2022-11-18T01:20:38;13.57;;;8.77;;
7541;SDS011;3812;50.006;8.230;2022-11-18T01:23:06;12.87;;;8.60;;
7541;SDS011;3812;50.006;8.230;2022-11-18T01:25:34;12.90;;;7.60;;
7541;SDS011;3812;50.006;8.230;2022-11-18T01:28:02;12.03;;;8.00;;
7541;SDS011;3812;50.006;8.230;2022-11-18T01:30:31;13.00;;;8.20;;
7541;SDS011;3812;50.006;8.230;2022-11-18T01:33:00;13.77;;;8.23;;
7541;SDS011;3812;50.006;8.230;2022-11-18T01:35:28;13.17;;;7.83;;
7541;SDS011;3812;50.006;8.230;2022-11-18T01:37:55;14.43;;;7.97;;
7541;SDS011;3812;50.006;8.230;2022-11-18T01:40:24;14.10;;;7.73;;
7541;SDS011;3812;50.006;8.230;2022-11-18T01:42:53;10.13;;;6.90;;
7541;SDS011;3812;50.006;8.230;2022-11-18T01:45:23;12.23;;;7.30;;
7541;SDS011;3812;50.006;8.230;2022-11-18T01:47:56;11.80;;;7.40;;
7541;SDS011;3812;50.006;8.230;2022-11-18T01:50:29;11.77;;;7.07;;
7541;SDS011;3812;50.006;8.230;2022-11-18T01:53:01;11.90;;;7.50;;
7541;SDS011;3812;50.006;8.230;2022-11-18T01:55:33;12.27;;;7.13;;
7541;SDS011;3812;50.006;8.230;2022-11-18T01:58:05;11.23;;;7.40;;
7541;SDS011;3812;50.006;8.230;2022-11-18T02:00:36;11.83;;;7.10;;
7541;SDS011;3812;50.006;8.230;2022-11-18T02:03:04;13.40;;;7.60;;
7541;SDS011;3812;50.006;8.230;2022-11-18T02:05:31;11.70;;;7.83;;
7541;SDS011;3812;50.006;8.230;2022-11-18T02:08:00;11.17;;;7.60;;
7541;SDS011;3812;50.006;8.230;2022-11-18T02:10:28;12.10;;;7.23;;
7541;SDS011;3812;50.006;8.230;2022-11-18T02:12:56;17.00;;;8.07;;
7541;SDS011;3812;50.006;8.230;2022-11-18T02:15:25;13.23;;;7.67;;
7541;SDS011;3812;50.006;8.230;2022-11-18T02:18:03;17.67;;;8.50;;
7541;SDS011;3812;50.006;8.230;2022-11-18T02:20:38;13.83;;;8.30;;
7541;SDS011;3812;50.006;8.230;2022-11-18T02:23:12;14.90;;;8.73;;
7541;SDS011;3812;50.006;8.230;2022-11-18T02:29:21;22.57;;;10.80;;
7541;SDS011;3812;50.006;8.230;2022-11-18T02:31:51;22.57;;;10.67;;
7541;SDS011;3812;50.006;8.230;2022-11-18T02:34:24;32.17;;;13.70;;
7541;SDS011;3812;50.006;8.230;2022-11-18T02:37:03;38.30;;;14.63;;
7541;SDS011;3812;50.006;8.230;2022-11-18T02:39:38;36.73;;;15.30;;
7541;SDS011;3812;50.006;8.230;2022-11-18T02:42:12;41.03;;;16.93;;
7541;SDS011;3812;50.006;8.230;2022-11-18T02:44:43;39.20;;;17.33;;
7541;SDS011;3812;50.006;8.230;2022-11-18T02:47:13;34.73;;;17.00;;
7541;SDS011;3812;50.006;8.230;2022-11-18T02:49:42;34.30;;;16.70;;
7541;SDS011;3812;50.006;8.230;2022-11-18T02:52:13;40.93;;;16.47;;
7541;SDS011;3812;50.006;8.230;2022-11-18T02:54:41;33.07;;;15.67;;
7541;SDS011;3812;50.006;8.230;2022-11-18T02:57:11;35.07;;;15.60;;
7541;SDS011;3812;50.006;8.230;2022-11-18T02:59:41;28.67;;;14.00;;
7541;SDS011;3812;50.006;8.230;2022-11-18T03:02:09;33.07;;;14.83;;
7541;SDS011;3812;50.006;8.230;2022-11-18T03:04:41;26.70;;;14.00;;
7541;SDS011;3812;50.006;8.230;2022-11-18T03:07:10;30.23;;;13.10;;
7541;SDS011;3812;50.006;8.230;2022-11-18T03:09:43;29.20;;;14.07;;
7541;SDS011;3812;50.006;8.230;2022-11-18T03:12:15;28.17;;;13.63;;
7541;SDS011;3812;50.006;8.230;2022-11-18T03:14:50;27.03;;;14.10;;
7541;SDS011;3812;50.006;8.230;2022-11-18T03:17:30;26.47;;;14.27;;
7541;SDS011;3812;50.006;8.230;2022-11-18T03:20:07;26.40;;;13.60;;
7541;SDS011;3812;50.006;8.230;2022-11-18T03:22:41;26.27;;;13.17;;
7541;SDS011;3812;50.006;8.230;2022-11-18T03:25:14;25.57;;;12.33;;
7541;SDS011;3812;50.006;8.230;2022-11-18T03:27:48;28.40;;;13.43;;
7541;SDS011;3812;50.006;8.230;2022-11-18T03:30:21;27.33;;;13.60;;
7541;SDS011;3812;50.006;8.230;2022-11-18T03:32:50;27.90;;;13.23;;
7541;SDS011;3812;50.006;8.230;2022-11-18T03:35:22;25.63;;;12.23;;
7541;SDS011;3812;50.006;8.230;2022-11-18T03:37:51;32.77;;;14.47;;
7541;SDS011;3812;50.006;8.230;2022-11-18T03:40:24;24.63;;;12.67;;
7541;SDS011;3812;50.006;8.230;2022-11-18T03:42:55;24.30;;;12.93;;
7541;SDS011;3812;50.006;8.230;2022-11-18T03:45:28;21.63;;;12.30;;
7541;SDS011;3812;50.006;8.230;2022-11-18T03:48:00;23.20;;;12.90;;
7541;SDS011;3812;50.006;8.230;2022-11-18T03:50:33;29.07;;;14.23;;
7541;SDS011;3812;50.006;8.230;2022-11-18T03:53:04;27.20;;;13.60;;
7541;SDS011;3812;50.006;8.230;2022-11-18T03:55:33;28.97;;;14.13;;
7541;SDS011;3812;50.006;8.230;2022-11-18T03:58:04;31.67;;;13.63;;
7541;SDS011;3812;50.006;8.230;2022-11-18T04:00:37;30.60;;;15.47;;
7541;SDS011;3812;50.006;8.230;2022-11-18T04:03:08;30.50;;;15.53;;
7541;SDS011;3812;50.006;8.230;2022-11-18T04:05:36;31.00;;;15.47;;
7541;SDS011;3812;50.006;8.230;2022-11-18T04:08:06;29.80;;;15.03;;
7541;SDS011;3812;50.006;8.230;2022-11-18T04:10:36;25.90;;;13.97;;
7541;SDS011;3812;50.006;8.230;2022-11-18T04:13:07;27.20;;;13.20;;
7541;SDS011;3812;50.006;8.230;2022-11-18T04:15:41;25.57;;;14.13;;
7541;SDS011;3812;50.006;8.230;2022-11-18T04:18:09;29.20;;;14.20;;
7541;SDS011;3812;50.006;8.230;2022-11-18T04:20:37;25.23;;;13.33;;
7541;SDS011;3812;50.006;8.230;2022-11-18T04:23:04;28.00;;;14.30;;
7541;SDS011;3812;50.006;8.230;2022-11-18T04:25:32;25.80;;;13.60;;
7541;SDS011;3812;50.006;8.230;2022-11-18T04:27:59;26.90;;;13.13;;
7541;SDS011;3812;50.006;8.230;2022-11-18T04:30:26;29.23;;;13.37;;
7541;SDS011;3812;50.006;8.230;2022-11-18T04:32:55;24.53;;;12.43;;
7541;SDS011;3812;50.006;8.230;2022-11-18T04:35:22;22.17;;;12.43;;
7541;SDS011;3812;50.006;8.230;2022-11-18T04:37:50;23.43;;;11.73;;
7541;SDS011;3812;50.006;8.230;2022-11-18T04:40:17;18.47;;;11.13;;
7541;SDS011;3812;50.006;8.230;2022-11-18T04:42:44;23.60;;;12.00;;
7541;SDS011;3812;50.006;8.230;2022-11-18T04:45:11;23.47;;;12.07;;
7541;SDS011;3812;50.006;8.230;2022-11-18T04:47:38;21.40;;;11.93;;
7541;SDS011;3812;50.006;8.230;2022-11-18T04:50:07;20.57;;;11.73;;
7541;SDS011;3812;50.006;8.230;2022-11-18T04:52:34;21.57;;;11.93;;
7541;SDS011;3812;50.006;8.230;2022-11-18T04:55:01;20.17;;;12.03;;
7541;SDS011;3812;50.006;8.230;2022-11-18T04:57:29;23.30;;;12.57;;
7541;SDS011;3812;50.006;8.230;2022-11-18T04:59:56;22.20;;;12.20;;
7541;SDS011;3812;50.006;8.230;2022-11-18T05:02:23;21.93;;;11.43;;
7541;SDS011;3812;50.006;8.230;2022-11-18T05:04:50;23.10;;;12.07;;
7541;SDS011;3812;50.006;8.230;2022-11-18T05:07:18;19.90;;;11.73;;
7541;SDS011;3812;50.006;8.230;2022-11-18T05:09:45;23.47;;;12.37;;
7541;SDS011;3812;50.006;8.230;2022-11-18T05:12:12;25.03;;;12.70;;
7541;SDS011;3812;50.006;8.230;2022-11-18T05:14:57;20.47;;;12.37;;
7541;SDS011;3812;50.006;8.230;2022-11-18T05:17:24;23.87;;;12.17;;
7541;SDS011;3812;50.006;8.230;2022-11-18T05:19:51;22.07;;;11.73;;
7541;SDS011;3812;50.006;8.230;2022-11-18T05:22:19;24.60;;;12.40;;
7541;SDS011;3812;50.006;8.230;2022-11-18T05:24:46;23.60;;;11.83;;
7541;SDS011;3812;50.006;8.230;2022-11-18T05:27:14;18.97;;;12.10;;
7541;SDS011;3812;50.006;8.230;2022-11-18T05:29:41;21.67;;;12.00;;
7541;SDS011;3812;50.006;8.230;2022-11-18T05:32:09;25.40;;;12.03;;
7541;SDS011;3812;50.006;8.230;2022-11-18T05:34:36;24.90;;;12.70;;
7541;SDS011;3812;50.006;8.230;2022-11-18T05:37:04;28.50;;;13.57;;
7541;SDS011;3812;50.006;8.230;2022-11-18T05:39:32;22.93;;;13.67;;
7541;SDS011;3812;50.006;8.230;2022-11-18T05:41:59;27.23;;;13.57;;
7541;SDS011;3812;50.006;8.230;2022-11-18T05:44:44;23.47;;;12.67;;
7541;SDS011;3812;50.006;8.230;2022-11-18T05:47:11;26.90;;;15.00;;
7541;SDS011;3812;50.006;8.230;2022-11-18T05:49:38;20.07;;;12.23;;
7541;SDS011;3812;50.006;8.230;2022-11-18T05:52:05;22.60;;;13.37;;
7541;SDS011;3812;50.006;8.230;2022-11-18T05:54:33;26.47;;;13.53;;
7541;SDS011;3812;50.006;8.230;2022-11-18T05:57:03;23.03;;;12.23;;
7541;SDS011;3812;50.006;8.230;2022-11-18T05:59:30;22.30;;;13.60;;
7541;SDS011;3812;50.006;8.230;2022-11-18T06:01:58;22.77;;;12.70;;
7541;SDS011;3812;50.006;8.230;2022-11-18T06:04:29;18.77;;;11.77;;
7541;SDS011;3812;50.006;8.230;2022-11-18T06:07:01;20.23;;;11.57;;
7541;SDS011;3812;50.006;8.230;2022-11-18T06:09:31;20.90;;;12.13;;
7541;SDS011;3812;50.006;8.230;2022-11-18T06:12:03;20.47;;;11.77;;
7541;SDS011;3812;50.006;8.230;2022-11-18T06:14:33;17.83;;;11.03;;
7541;SDS011;3812;50.006;8.230;2022-11-18T06:17:03;19.77;;;11.00;;
7541;SDS011;3812;50.006;8.230;2022-11-18T06:19:34;18.20;;;10.93;;
7541;SDS011;3812;50.006;8.230;2022-11-18T06:22:02;19.60;;;10.80;;
7541;SDS011;3812;50.006;8.230;2022-11-18T06:24:29;18.17;;;10.97;;
7541;SDS011;3812;50.006;8.230;2022-11-18T06:26:58;19.87;;;11.97;;
7541;SDS011;3812;50.006;8.230;2022-11-18T06:29:25;25.20;;;12.97;;
7541;SDS011;3812;50.006;8.230;2022-11-18T06:31:53;27.17;;;13.73;;
7541;SDS011;3812;50.006;8.230;2022-11-18T06:34:20;22.83;;;12.97;;
7541;SDS011;3812;50.006;8.230;2022-11-18T06:36:47;20.33;;;12.97;;
7541;SDS011;3812;50.006;8.230;2022-11-18T06:39:14;18.93;;;12.70;;
7541;SDS011;3812;50.006;8.230;2022-11-18T06:41:41;21.90;;;12.50;;
7541;SDS011;3812;50.006;8.230;2022-11-18T06:44:11;25.60;;;13.40;;
7541;SDS011;3812;50.006;8.230;2022-11-18T06:46:37;23.03;;;13.10;;
7541;SDS011;3812;50.006;8.230;2022-11-18T06:49:23;20.53;;;13.13;;
7541;SDS011;3812;50.006;8.230;2022-11-18T06:51:51;20.27;;;12.30;;
7541;SDS011;3812;50.006;8.230;2022-11-18T06:54:18;20.57;;;11.57;;
7541;SDS011;3812;50.006;8.230;2022-11-18T06:56:45;21.73;;;12.67;;
7541;SDS011;3812;50.006;8.230;2022-11-18T06:59:14;22.73;;;12.20;;
7541;SDS011;3812;50.006;8.230;2022-11-18T07:01:46;18.63;;;12.43;;
7541;SDS011;3812;50.006;8.230;2022-11-18T07:04:13;18.63;;;11.90;;
7541;SDS011;3812;50.006;8.230;2022-11-18T07:06:40;19.43;;;10.77;;
7541;SDS011;3812;50.006;8.230;2022-11-18T07:09:07;17.07;;;10.53;;
7541;SDS011;3812;50.006;8.230;2022-11-18T07:11:34;15.30;;;10.00;;
7541;SDS011;3812;50.006;8.230;2022-11-18T07:14:02;15.90;;;9.20;;
7541;SDS011;3812;50.006;8.230;2022-11-18T07:16:32;12.90;;;8.40;;
7541;SDS011;3812;50.006;8.230;2022-11-18T07:18:59;13.87;;;8.67;;
7541;SDS011;3812;50.006;8.230;2022-11-18T07:21:27;16.47;;;8.43;;
7541;SDS011;3812;50.006;8.230;2022-11-18T07:23:55;13.00;;;8.00;;
7541;SDS011;3812;50.006;8.230;2022-11-18T07:26:22;10.17;;;7.20;;
7541;SDS011;3812;50.006;8.230;2022-11-18T07:28:49;11.27;;;7.43;;
7541;SDS011;3812;50.006;8.230;2022-11-18T07:31:17;9.03;;;6.43;;
7541;SDS011;3812;50.006;8.230;2022-11-18T07:33:46;11.17;;;7.40;;
7541;SDS011;3812;50.006;8.230;2022-11-18T07:36:14;9.57;;;6.47;;
7541;SDS011;3812;50.006;8.230;2022-11-18T07:38:43;9.53;;;5.90;;
7541;SDS011;3812;50.006;8.230;2022-11-18T07:41:11;9.17;;;5.70;;
7541;SDS011;3812;50.006;8.230;2022-11-18T07:43:39;8.03;;;5.20;;
7541;SDS011;3812;50.006;8.230;2022-11-18T07:46:08;9.23;;;5.03;;
7541;SDS011;3812;50.006;8.230;2022-11-18T07:48:37;6.97;;;5.10;;
7541;SDS011;3812;50.006;8.230;2022-11-18T07:51:05;6.47;;;4.40;;
7541;SDS011;3812;50.006;8.230;2022-11-18T07:53:32;7.43;;;4.50;;
7541;SDS011;3812;50.006;8.230;2022-11-18T07:56:00;7.87;;;3.87;;
7541;SDS011;3812;50.006;8.230;2022-11-18T07:58:27;3.60;;;2.73;;
7541;SDS011;3812;50.006;8.230;2022-11-18T08:00:54;4.67;;;2.97;;
7541;SDS011;3812;50.006;8.230;2022-11-18T08:03:23;6.30;;;3.07;;
7541;SDS011;3812;50.006;8.230;2022-11-18T08:05:51;3.83;;;3.43;;
7541;SDS011;3812;50.006;8.230;2022-11-18T08:08:19;6.50;;;3.13;;
7541;SDS011;3812;50.006;8.230;2022-11-18T08:10:46;6.80;;;2.70;;
7541;SDS011;3812;50.006;8.230;2022-11-18T08:13:13;3.57;;;2.30;;
7541;SDS011;3812;50.006;8.230;2022-11-18T08:15:41;3.43;;;2.40;;
7541;SDS011;3812;50.006;8.230;2022-11-18T08:18:08;5.07;;;2.13;;
7541;SDS011;3812;50.006;8.230;2022-11-18T08:20:35;5.20;;;2.33;;
7541;SDS011;3812;50.006;8.230;2022-11-18T08:23:02;3.37;;;2.50;;
7541;SDS011;3812;50.006;8.230;2022-11-18T08:25:30;3.60;;;2.20;;
7541;SDS011;3812;50.006;8.230;2022-11-18T08:27:57;4.10;;;2.30;;
7541;SDS011;3812;50.006;8.230;2022-11-18T08:30:24;4.53;;;2.60;;
7541;SDS011;3812;50.006;8.230;2022-11-18T08:32:51;2.90;;;2.43;;
7541;SDS011;3812;50.006;8.230;2022-11-18T08:35:18;3.37;;;2.60;;
7541;SDS011;3812;50.006;8.230;2022-11-18T08:37:45;5.40;;;2.47;;
7541;SDS011;3812;50.006;8.230;2022-11-18T08:40:12;3.60;;;2.33;;
7541;SDS011;3812;50.006;8.230;2022-11-18T08:42:40;3.23;;;2.30;;
7541;SDS011;3812;50.006;8.230;2022-11-18T08:45:07;3.10;;;2.00;;
7541;SDS011;3812;50.006;8.230;2022-11-18T08:47:35;3.40;;;2.23;;
7541;SDS011;3812;50.006;8.230;2022-11-18T08:50:03;2.63;;;2.30;;
7541;SDS011;3812;50.006;8.230;2022-11-18T08:52:30;2.47;;;1.90;;
7541;SDS011;3812;50.006;8.230;2022-11-18T08:54:57;2.20;;;2.00;;
7541;SDS011;3812;50.006;8.230;2022-11-18T08:57:24;1.50;;;1.40;;
7541;SDS011;3812;50.006;8.230;2022-11-18T08:59:53;3.17;;;1.60;;
7541;SDS011;3812;50.006;8.230;2022-11-18T09:02:21;2.50;;;1.70;;
7541;SDS011;3812;50.006;8.230;2022-11-18T09:04:49;3.00;;;1.87;;
7541;SDS011;3812;50.006;8.230;2022-11-18T09:07:17;2.03;;;1.70;;
7541;SDS011;3812;50.006;8.230;2022-11-18T09:09:44;3.70;;;1.80;;
7541;SDS011;3812;50.006;8.230;2022-11-18T09:12:12;1.97;;;1.60;;
7541;SDS011;3812;50.006;8.230;2022-11-18T09:14:41;2.97;;;1.70;;
7541;SDS011;3812;50.006;8.230;2022-11-18T09:17:10;2.17;;;1.80;;
7541;SDS011;3812;50.006;8.230;2022-11-18T09:19:38;3.07;;;1.77;;
7541;SDS011;3812;50.006;8.230;2022-11-18T09:22:05;2.63;;;1.50;;
7541;SDS011;3812;50.006;8.230;2022-11-18T09:24:33;2.00;;;1.30;;
7541;SDS011;3812;50.006;8.230;2022-11-18T09:27:01;2.13;;;1.73;;
7541;SDS011;3812;50.006;8.230;2022-11-18T09:29:29;1.40;;;1.23;;
7541;SDS011;3812;50.006;8.230;2022-11-18T09:31:56;2.60;;;1.40;;
7541;SDS011;3812;50.006;8.230;2022-11-18T09:34:27;2.73;;;1.33;;
7541;SDS011;3812;50.006;8.230;2022-11-18T09:36:55;2.27;;;1.43;;
7541;SDS011;3812;50.006;8.230;2022-11-18T09:39:22;3.27;;;1.80;;
7541;SDS011;3812;50.006;8.230;2022-11-18T09:41:52;2.27;;;1.50;;
7541;SDS011;3812;50.006;8.230;2022-11-18T09:44:30;1.93;;;1.80;;
7541;SDS011;3812;50.006;8.230;2022-11-18T09:47:19;2.87;;;1.77;;
7541;SDS011;3812;50.006;8.230;2022-11-18T09:49:52;4.07;;;2.00;;
7541;SDS011;3812;50.006;8.230;2022-11-18T09:52:23;1.60;;;1.40;;
7541;SDS011;3812;50.006;8.230;2022-11-18T09:54:53;2.53;;;1.67;;
7541;SDS011;3812;50.006;8.230;2022-11-18T09:57:22;2.30;;;1.57;;
7541;SDS011;3812;50.006;8.230;2022-11-18T09:59:51;1.93;;;1.50;;
7541;SDS011;3812;50.006;8.230;2022-11-18T10:02:25;2.10;;;1.60;;
7541;SDS011;3812;50.006;8.230;2022-11-18T10:05:06;2.33;;;1.50;;
7541;SDS011;3812;50.006;8.230;2022-11-18T10:07:40;3.57;;;1.80;;
7541;SDS011;3812;50.006;8.230;2022-11-18T10:10:14;3.13;;;1.53;;
7541;SDS011;3812;50.006;8.230;2022-11-18T10:12:47;1.77;;;1.43;;
7541;SDS011;3812;50.006;8.230;2022-11-18T10:15:22;3.43;;;1.57;;
7541;SDS011;3812;50.006;8.230;2022-11-18T10:17:57;1.83;;;1.30;;
7541;SDS011;3812;50.006;8.230;2022-11-18T10:20:34;2.53;;;1.47;;
7541;SDS011;3812;50.006;8.230;2022-11-18T10:23:11;1.63;;;1.53;;
7541;SDS011;3812;50.006;8.230;2022-11-18T10:25:43;2.13;;;1.50;;
7541;SDS011;3812;50.006;8.230;2022-11-18T10:28:15;4.00;;;1.43;;
7541;SDS011;3812;50.006;8.230;2022-11-18T10:30:45;2.53;;;1.50;;
7541;SDS011;3812;50.006;8.230;2022-11-18T10:33:17;4.00;;;1.50;;
7541;SDS011;3812;50.006;8.230;2022-11-18T10:35:51;2.63;;;1.43;;
7541;SDS011;3812;50.006;8.230;2022-11-18T10:38:35;3.33;;;1.60;;
7541;SDS011;3812;50.006;8.230;2022-11-18T10:41:03;2.67;;;1.40;;
7541;SDS011;3812;50.006;8.230;2022-11-18T10:43:41;2.17;;;1.50;;
7541;SDS011;3812;50.006;8.230;2022-11-18T10:46:15;2.50;;;1.53;;
7541;SDS011;3812;50.006;8.230;2022-11-18T10:48:44;2.13;;;1.73;;
7541;SDS011;3812;50.006;8.230;2022-11-18T10:51:22;4.87;;;1.80;;
7541;SDS011;3812;50.006;8.230;2022-11-18T10:53:50;2.07;;;1.60;;
7541;SDS011;3812;50.006;8.230;2022-11-18T10:56:17;3.93;;;1.93;;
7541;SDS011;3812;50.006;8.230;2022-11-18T10:58:44;3.13;;;2.20;;
7541;SDS011;3812;50.006;8.230;2022-11-18T11:01:18;2.27;;;1.90;;
7541;SDS011;3812;50.006;8.230;2022-11-18T11:03:51;2.20;;;1.53;;
7541;SDS011;3812;50.006;8.230;2022-11-18T11:06:29;3.43;;;2.00;;
7541;SDS011;3812;50.006;8.230;2022-11-18T11:08:59;4.97;;;2.30;;
7541;SDS011;3812;50.006;8.230;2022-11-18T11:11:29;3.33;;;1.80;;
7541;SDS011;3812;50.006;8.230;2022-11-18T11:14:05;2.77;;;2.00;;
7541;SDS011;3812;50.006;8.230;2022-11-18T11:16:48;2.60;;;1.60;;
7541;SDS011;3812;50.006;8.230;2022-11-18T11:22:17;2.33;;;1.50;;
7541;SDS011;3812;50.006;8.230;2022-11-18T11:24:45;2.70;;;1.50;;
7541;SDS011;3812;50.006;8.230;2022-11-18T11:27:20;1.33;;;1.23;;
7541;SDS011;3812;50.006;8.230;2022-11-18T11:30:06;3.47;;;1.30;;
7541;SDS011;3812;50.006;8.230;2022-11-18T11:32:42;3.40;;;1.47;;
7541;SDS011;3812;50.006;8.230;2022-11-18T11:35:28;3.37;;;1.53;;
7541;SDS011;3812;50.006;8.230;2022-11-18T11:38:02;4.77;;;1.83;;
7541;SDS011;3812;50.006;8.230;2022-11-18T11:40:39;3.27;;;1.43;;
7541;SDS011;3812;50.006;8.230;2022-11-18T11:43:22;1.60;;;1.10;;
7541;SDS011;3812;50.006;8.230;2022-11-18T11:46:00;1.60;;;1.50;;
7541;SDS011;3812;50.006;8.230;2022-11-18T11:48:49;2.70;;;1.33;;
7541;SDS011;3812;50.006;8.230;2022-11-18T11:51:24;1.90;;;1.40;;
7541;SDS011;3812;50.006;8.230;2022-11-18T11:54:04;2.77;;;1.50;;
7541;SDS011;3812;50.006;8.230;2022-11-18T11:56:50;3.57;;;1.40;;
7541;SDS011;3812;50.006;8.230;2022-11-18T11:59:24;2.97;;;1.20;;
7541;SDS011;3812;50.006;8.230;2022-11-18T12:02:13;2.00;;;1.13;;
7541;SDS011;3812;50.006;8.230;2022-11-18T12:04:55;1.97;;;1.40;;
7541;SDS011;3812;50.006;8.230;2022-11-18T12:07:27;3.00;;;1.47;;
7541;SDS011;3812;50.006;8.230;2022-11-18T12:10:07;1.27;;;1.10;;
7541;SDS011;3812;50.006;8.230;2022-11-18T12:12:49;1.83;;;1.03;;
7541;SDS011;3812;50.006;8.230;2022-11-18T12:15:24;1.20;;;1.00;;
7541;SDS011;3812;50.006;8.230;2022-11-18T12:18:07;1.77;;;1.10;;
7541;SDS011;3812;50.006;8.230;2022-11-18T12:20:42;2.53;;;1.10;;
7541;SDS011;3812;50.006;8.230;2022-11-18T12:23:12;2.70;;;1.30;;
7541;SDS011;3812;50.006;8.230;2022-11-18T12:25:52;2.67;;;1.10;;
7541;SDS011;3812;50.006;8.230;2022-11-18T12:28:25;2.70;;;1.10;;
7541;SDS011;3812;50.006;8.230;2022-11-18T12:33:56;3.50;;;1.10;;
7541;SDS011;3812;50.006;8.230;2022-11-18T12:36:25;2.33;;;1.07;;
7541;SDS011;3812;50.006;8.230;2022-11-18T12:38:54;2.80;;;1.10;;
7541;SDS011;3812;50.006;8.230;2022-11-18T12:44:36;3.57;;;1.10;;
7541;SDS011;3812;50.006;8.230;2022-11-18T12:47:04;3.37;;;1.20;;
7541;SDS011;3812;50.006;8.230;2022-11-18T12:52:46;2.70;;;1.13;;
7541;SDS011;3812;50.006;8.230;2022-11-18T12:55:15;3.67;;;1.07;;
7541;SDS011;3812;50.006;8.230;2022-11-18T12:57:47;3.43;;;1.30;;
7541;SDS011;3812;50.006;8.230;2022-11-18T13:00:15;3.20;;;1.03;;
7541;SDS011;3812;50.006;8.230;2022-11-18T13:02:53;3.90;;;1.00;;
7541;SDS011;3812;50.006;8.230;2022-11-18T13:05:22;3.97;;;0.97;;
7541;SDS011;3812;50.006;8.230;2022-11-18T13:07:51;3.03;;;0.90;;
7541;SDS011;3812;50.006;8.230;2022-11-18T13:10:39;2.93;;;1.20;;
7541;SDS011;3812;50.006;8.230;2022-11-18T13:13:20;2.00;;;0.87;;
7541;SDS011;3812;50.006;8.230;2022-11-18T13:15:51;2.97;;;0.90;;
7541;SDS011;3812;50.006;8.230;2022-11-18T13:18:45;1.40;;;0.90;;
7541;SDS011;3812;50.006;8.230;2022-11-18T13:21:19;2.53;;;1.20;;
7541;SDS011;3812;50.006;8.230;2022-11-18T13:24:04;1.43;;;0.87;;
7541;SDS011;3812;50.006;8.230;2022-11-18T13:26:32;3.97;;;1.23;;
7541;SDS011;3812;50.006;8.230;2022-11-18T13:31:55;4.37;;;1.40;;
7541;SDS011;3812;50.006;8.230;2022-11-18T13:34:30;2.83;;;1.10;;
7541;SDS011;3812;50.006;8.230;2022-11-18T13:37:11;2.23;;;1.20;;
7541;SDS011;3812;50.006;8.230;2022-11-18T13:39:43;2.53;;;1.00;;
7541;SDS011;3812;50.006;8.230;2022-11-18T13:42:14;2.00;;;1.10;;
7541;SDS011;3812;50.006;8.230;2022-11-18T13:44:45;2.40;;;1.27;;
7541;SDS011;3812;50.006;8.230;2022-11-18T13:47:19;1.40;;;1.20;;
7541;SDS011;3812;50.006;8.230;2022-11-18T13:49:52;4.17;;;1.13;;
7541;SDS011;3812;50.006;8.230;2022-11-18T13:52:27;2.47;;;1.10;;
7541;SDS011;3812;50.006;8.230;2022-11-18T13:55:00;2.67;;;1.17;;
7541;SDS011;3812;50.006;8.230;2022-11-18T13:57:32;2.97;;;0.90;;
7541;SDS011;3812;50.006;8.230;2022-11-18T14:00:04;2.40;;;1.13;;
7541;SDS011;3812;50.006;8.230;2022-11-18T14:02:37;2.13;;;1.27;;
7541;SDS011;3812;50.006;8.230;2022-11-18T14:05:15;2.47;;;0.97;;
7541;SDS011;3812;50.006;8.230;2022-11-18T14:07:52;1.33;;;0.90;;
7541;SDS011;3812;50.006;8.230;2022-11-18T14:10:30;3.33;;;1.10;;
7541;SDS011;3812;50.006;8.230;2022-11-18T14:12:59;2.23;;;0.93;;
7541;SDS011;3812;50.006;8.230;2022-11-18T14:15:33;2.10;;;1.20;;
7541;SDS011;3812;50.006;8.230;2022-11-18T14:18:01;4.13;;;1.47;;
7541;SDS011;3812;50.006;8.230;2022-11-18T14:20:29;3.83;;;1.70;;
7541;SDS011;3812;50.006;8.230;2022-11-18T14:22:57;3.40;;;1.47;;
7541;SDS011;3812;50.006;8.230;2022-11-18T14:25:26;3.07;;;1.50;;
7541;SDS011;3812;50.006;8.230;2022-11-18T14:27:55;6.07;;;1.90;;
7541;SDS011;3812;50.006;8.230;2022-11-18T14:30:36;2.87;;;1.43;;
7541;SDS011;3812;50.006;8.230;2022-11-18T14:33:08;3.30;;;1.57;;
7541;SDS011;3812;50.006;8.230;2022-11-18T14:35:43;1.87;;;1.10;;
7541;SDS011;3812;50.006;8.230;2022-11-18T14:38:15;3.63;;;1.70;;
7541;SDS011;3812;50.006;8.230;2022-11-18T14:40:43;4.07;;;1.20;;
7541;SDS011;3812;50.006;8.230;2022-11-18T14:43:11;3.67;;;1.20;;
7541;SDS011;3812;50.006;8.230;2022-11-18T14:45:40;4.37;;;1.50;;
7541;SDS011;3812;50.006;8.230;2022-11-18T14:48:08;3.80;;;1.53;;
7541;SDS011;3812;50.006;8.230;2022-11-18T14:50:37;4.20;;;1.30;;
7541;SDS011;3812;50.006;8.230;2022-11-18T14:53:04;2.97;;;1.60;;
7541;SDS011;3812;50.006;8.230;2022-11-18T14:55:31;3.10;;;1.50;;
7541;SDS011;3812;50.006;8.230;2022-11-18T14:57:58;6.37;;;2.00;;
7541;SDS011;3812;50.006;8.230;2022-11-18T15:00:25;4.20;;;2.00;;
7541;SDS011;3812;50.006;8.230;2022-11-18T15:02:54;5.40;;;2.20;;
7541;SDS011;3812;50.006;8.230;2022-11-18T15:05:21;5.30;;;2.60;;
7541;SDS011;3812;50.006;8.230;2022-11-18T15:07:48;4.17;;;2.47;;
7541;SDS011;3812;50.006;8.230;2022-11-18T15:10:15;3.93;;;2.10;;
7541;SDS011;3812;50.006;8.230;2022-11-18T15:12:43;4.53;;;2.17;;
7541;SDS011;3812;50.006;8.230;2022-11-18T15:15:10;5.63;;;1.87;;
7541;SDS011;3812;50.006;8.230;2022-11-18T15:17:38;5.03;;;1.80;;
7541;SDS011;3812;50.006;8.230;2022-11-18T15:20:08;7.43;;;1.97;;
7541;SDS011;3812;50.006;8.230;2022-11-18T15:22:37;3.33;;;1.83;;
7541;SDS011;3812;50.006;8.230;2022-11-18T15:25:05;5.70;;;1.90;;
7541;SDS011;3812;50.006;8.230;2022-11-18T15:27:32;5.87;;;2.10;;
7541;SDS011;3812;50.006;8.230;2022-11-18T15:29:59;3.93;;;2.27;;
7541;SDS011;3812;50.006;8.230;2022-11-18T15:32:27;4.90;;;2.80;;
7541;SDS011;3812;50.006;8.230;2022-11-18T15:34:54;3.53;;;2.17;;
7541;SDS011;3812;50.006;8.230;2022-11-18T15:37:22;3.47;;;2.00;;
7541;SDS011;3812;50.006;8.230;2022-11-18T15:39:49;2.83;;;1.83;;
7541;SDS011;3812;50.006;8.230;2022-11-18T15:42:16;3.17;;;1.60;;
7541;SDS011;3812;50.006;8.230;2022-11-18T15:44:43;6.33;;;1.80;;